sensor_id;sensor_type;location;lat;lon;timestamp;pressure;altitude;pressure_sealevel;temperature;humidity
64086;BME280;50333;47.436;21.390;2023-02-02T00:01:46;100261.59;;;4.30;73.10
64086;BME280;50333;47.436;21.390;2023-02-02T00:04:17;100256.44;;;4.42;72.98
64086;BME280;50333;47.436;21.390;2023-02-02T00:06:45;100259.50;;;4.39;73.13
64086;BME280;50333;47.436;21.390;2023-02-02T00:09:16;100253.47;;;4.69;72.23
64086;BME280;50333;47.436;21.390;2023-02-02T00:11:45;100267.53;;;4.31;73.13
64086;BME280;50333;47.436;21.390;2023-02-02T00:14:13;100267.13;;;4.58;72.90
64086;BME280;50333;47.436;21.390;2023-02-02T00:19:24;100261.25;;;4.27;73.39
64086;BME280;50333;47.436;21.390;2023-02-02T00:21:56;100253.66;;;4.32;73.51
64086;BME280;50333;47.436;21.390;2023-02-02T00:24:24;100255.56;;;4.48;72.88
64086;BME280;50333;47.436;21.390;2023-02-02T00:26:54;100249.97;;;4.51;73.07
64086;BME280;50333;47.436;21.390;2023-02-02T00:29:28;100260.41;;;4.57;72.86
64086;BME280;50333;47.436;21.390;2023-02-02T00:31:56;100255.00;;;4.46;72.86
64086;BME280;50333;47.436;21.390;2023-02-02T00:34:24;100247.81;;;4.48;72.79
64086;BME280;50333;47.436;21.390;2023-02-02T00:36:52;100255.13;;;4.51;72.95
64086;BME280;50333;47.436;21.390;2023-02-02T00:39:23;100251.75;;;4.63;72.26
64086;BME280;50333;47.436;21.390;2023-02-02T00:41:54;100254.03;;;4.71;71.88
64086;BME280;50333;47.436;21.390;2023-02-02T00:44:22;100241.69;;;3.77;74.29
64086;BME280;50333;47.436;21.390;2023-02-02T00:47:08;100238.16;;;4.32;73.41
64086;BME280;50333;47.436;21.390;2023-02-02T00:49:36;100234.44;;;3.86;74.75
64086;BME280;50333;47.436;21.390;2023-02-02T00:52:04;100235.59;;;4.02;73.34
64086;BME280;50333;47.436;21.390;2023-02-02T00:54:32;100232.38;;;4.06;72.67
64086;BME280;50333;47.436;21.390;2023-02-02T00:57:00;100240.56;;;3.36;75.08
64086;BME280;50333;47.436;21.390;2023-02-02T00:59:27;100237.31;;;3.77;74.91
64086;BME280;50333;47.436;21.390;2023-02-02T01:01:55;100227.06;;;3.71;74.32
64086;BME280;50333;47.436;21.390;2023-02-02T01:04:23;100232.06;;;3.17;76.17
64086;BME280;50333;47.436;21.390;2023-02-02T01:06:51;100227.31;;;3.69;74.68
64086;BME280;50333;47.436;21.390;2023-02-02T01:09:18;100227.25;;;3.88;73.82
64086;BME280;50333;47.436;21.390;2023-02-02T01:11:47;100216.22;;;4.11;73.06
64086;BME280;50333;47.436;21.390;2023-02-02T01:14:15;100217.50;;;3.78;73.06
64086;BME280;50333;47.436;21.390;2023-02-02T01:16:42;100213.75;;;3.44;74.74
64086;BME280;50333;47.436;21.390;2023-02-02T01:19:14;100208.09;;;3.84;73.74
64086;BME280;50333;47.436;21.390;2023-02-02T01:21:42;100203.09;;;3.70;73.92
64086;BME280;50333;47.436;21.390;2023-02-02T01:24:10;100205.25;;;3.73;74.21
64086;BME280;50333;47.436;21.390;2023-02-02T01:26:38;100199.31;;;3.06;76.99
64086;BME280;50333;47.436;21.390;2023-02-02T01:29:06;100195.78;;;3.37;75.35
64086;BME280;50333;47.436;21.390;2023-02-02T01:31:34;100187.56;;;3.10;76.29
64086;BME280;50333;47.436;21.390;2023-02-02T01:34:01;100181.97;;;3.31;76.29
64086;BME280;50333;47.436;21.390;2023-02-02T01:36:29;100176.78;;;3.50;75.38
64086;BME280;50333;47.436;21.390;2023-02-02T01:38:58;100177.25;;;3.28;76.12
64086;BME280;50333;47.436;21.390;2023-02-02T01:41:26;100176.53;;;3.70;74.69
64086;BME280;50333;47.436;21.390;2023-02-02T01:44:02;100165.97;;;3.29;76.67
64086;BME280;50333;47.436;21.390;2023-02-02T01:46:35;100155.53;;;3.54;74.93
64086;BME280;50333;47.436;21.390;2023-02-02T01:49:07;100153.81;;;3.48;75.44
64086;BME280;50333;47.436;21.390;2023-02-02T01:51:57;100144.94;;;3.44;75.30
64086;BME280;50333;47.436;21.390;2023-02-02T01:54:37;100145.06;;;2.82;77.95
64086;BME280;50333;47.436;21.390;2023-02-02T01:57:18;100135.06;;;3.71;75.71
64086;BME280;50333;47.436;21.390;2023-02-02T01:59:48;100135.13;;;3.53;75.99
64086;BME280;50333;47.436;21.390;2023-02-02T02:02:17;100142.50;;;3.49;75.99
64086;BME280;50333;47.436;21.390;2023-02-02T02:04:49;100142.41;;;3.56;76.88
64086;BME280;50333;47.436;21.390;2023-02-02T02:07:17;100132.37;;;3.66;75.71
64086;BME280;50333;47.436;21.390;2023-02-02T02:09:46;100139.63;;;3.57;76.82
64086;BME280;50333;47.436;21.390;2023-02-02T02:12:15;100137.66;;;3.41;77.44
64086;BME280;50333;47.436;21.390;2023-02-02T02:14:47;100129.69;;;3.85;76.05
64086;BME280;50333;47.436;21.390;2023-02-02T02:42:58;100126.38;;;4.20;75.49
64086;BME280;50333;47.436;21.390;2023-02-02T02:45:27;100121.44;;;4.30;75.53
64086;BME280;50333;47.436;21.390;2023-02-02T02:47:55;100122.13;;;4.37;74.97
64086;BME280;50333;47.436;21.390;2023-02-02T02:50:24;100116.62;;;4.22;75.77
64086;BME280;50333;47.436;21.390;2023-02-02T02:52:59;100116.28;;;4.30;75.29
64086;BME280;50333;47.436;21.390;2023-02-02T02:55:39;100118.87;;;4.42;74.86
64086;BME280;50333;47.436;21.390;2023-02-02T02:58:15;100116.41;;;4.23;75.53
64086;BME280;50333;47.436;21.390;2023-02-02T03:01:12;100120.12;;;4.39;75.13
64086;BME280;50333;47.436;21.390;2023-02-02T03:09:03;100126.16;;;4.21;75.54
64086;BME280;50333;47.436;21.390;2023-02-02T03:11:33;100122.66;;;4.51;74.56
64086;BME280;50333;47.436;21.390;2023-02-02T03:14:02;100087.00;;;4.48;74.33
64086;BME280;50333;47.436;21.390;2023-02-02T03:16:30;100094.09;;;4.29;74.50
64086;BME280;50333;47.436;21.390;2023-02-02T03:18:58;100084.87;;;4.33;74.70
64086;BME280;50333;47.436;21.390;2023-02-02T03:21:25;100096.75;;;4.58;73.96
64086;BME280;50333;47.436;21.390;2023-02-02T03:23:54;100102.16;;;4.44;74.29
64086;BME280;50333;47.436;21.390;2023-02-02T03:26:21;100098.75;;;4.67;73.45
64086;BME280;50333;47.436;21.390;2023-02-02T03:28:52;100077.13;;;4.57;73.63
64086;BME280;50333;47.436;21.390;2023-02-02T03:31:22;100102.88;;;4.68;73.37
64086;BME280;50333;47.436;21.390;2023-02-02T03:33:51;100103.72;;;4.45;74.15
64086;BME280;50333;47.436;21.390;2023-02-02T03:36:18;100095.19;;;4.33;74.10
64086;BME280;50333;47.436;21.390;2023-02-02T03:38:46;100110.78;;;4.26;74.81
64086;BME280;50333;47.436;21.390;2023-02-02T03:41:14;100081.41;;;4.15;74.41
64086;BME280;50333;47.436;21.390;2023-02-02T03:43:42;100064.53;;;4.60;73.43
64086;BME280;50333;47.436;21.390;2023-02-02T03:46:09;100089.91;;;4.63;73.11
64086;BME280;50333;47.436;21.390;2023-02-02T03:48:38;100096.06;;;4.74;72.71
64086;BME280;50333;47.436;21.390;2023-02-02T03:51:11;100096.31;;;4.37;73.29
64086;BME280;50333;47.436;21.390;2023-02-02T03:53:41;100099.69;;;4.49;73.62
64086;BME280;50333;47.436;21.390;2023-02-02T03:56:14;100086.28;;;4.64;72.68
64086;BME280;50333;47.436;21.390;2023-02-02T03:58:42;100089.91;;;4.51;73.00
64086;BME280;50333;47.436;21.390;2023-02-02T04:01:12;100080.38;;;4.40;72.88
64086;BME280;50333;47.436;21.390;2023-02-02T04:03:41;100080.81;;;4.49;72.64
64086;BME280;50333;47.436;21.390;2023-02-02T04:06:09;100081.41;;;4.15;73.60
64086;BME280;50333;47.436;21.390;2023-02-02T04:08:36;100072.62;;;4.28;73.46
64086;BME280;50333;47.436;21.390;2023-02-02T04:11:09;100076.03;;;4.29;73.11
64086;BME280;50333;47.436;21.390;2023-02-02T04:13:36;100065.03;;;4.22;73.08
64086;BME280;50333;47.436;21.390;2023-02-02T04:16:04;100072.19;;;4.20;73.16
64086;BME280;50333;47.436;21.390;2023-02-02T04:18:32;100077.13;;;4.21;73.29
64086;BME280;50333;47.436;21.390;2023-02-02T04:21:00;100081.84;;;4.48;72.36
64086;BME280;50333;47.436;21.390;2023-02-02T04:23:29;100080.94;;;4.42;72.12
64086;BME280;50333;47.436;21.390;2023-02-02T04:25:57;100083.97;;;4.39;72.08
64086;BME280;50333;47.436;21.390;2023-02-02T04:28:25;100090.25;;;4.43;71.79
64086;BME280;50333;47.436;21.390;2023-02-02T04:30:54;100086.34;;;4.41;71.63
64086;BME280;50333;47.436;21.390;2023-02-02T04:33:24;100096.88;;;4.39;71.65
64086;BME280;50333;47.436;21.390;2023-02-02T04:35:51;100100.47;;;4.26;72.03
64086;BME280;50333;47.436;21.390;2023-02-02T04:38:19;100092.50;;;4.16;72.31
64086;BME280;50333;47.436;21.390;2023-02-02T04:40:48;100091.16;;;4.13;72.49
64086;BME280;50333;47.436;21.390;2023-02-02T04:43:15;100086.34;;;4.05;72.50
64086;BME280;50333;47.436;21.390;2023-02-02T04:45:43;100087.59;;;4.14;72.20
64086;BME280;50333;47.436;21.390;2023-02-02T04:48:11;100087.47;;;3.97;72.49
64086;BME280;50333;47.436;21.390;2023-02-02T04:50:39;100094.06;;;4.05;72.33
64086;BME280;50333;47.436;21.390;2023-02-02T04:53:07;100099.22;;;4.05;72.43
64086;BME280;50333;47.436;21.390;2023-02-02T04:55:36;100093.50;;;4.03;72.73
64086;BME280;50333;47.436;21.390;2023-02-02T04:58:04;100099.34;;;3.99;72.73
64086;BME280;50333;47.436;21.390;2023-02-02T05:00:32;100111.22;;;3.88;72.73
64086;BME280;50333;47.436;21.390;2023-02-02T05:03:00;100113.34;;;3.91;72.88
64086;BME280;50333;47.436;21.390;2023-02-02T05:05:28;100121.87;;;4.03;72.51
64086;BME280;50333;47.436;21.390;2023-02-02T05:07:55;100120.72;;;3.75;73.37
64086;BME280;50333;47.436;21.390;2023-02-02T05:10:23;100130.53;;;4.09;72.62
64086;BME280;50333;47.436;21.390;2023-02-02T05:12:52;100129.19;;;4.06;72.42
64086;BME280;50333;47.436;21.390;2023-02-02T05:15:20;100137.50;;;4.08;72.37
64086;BME280;50333;47.436;21.390;2023-02-02T05:17:49;100132.22;;;4.03;72.53
64086;BME280;50333;47.436;21.390;2023-02-02T05:20:16;100142.44;;;4.10;72.47
64086;BME280;50333;47.436;21.390;2023-02-02T05:22:47;100143.41;;;3.97;72.67
64086;BME280;50333;47.436;21.390;2023-02-02T05:25:15;100141.19;;;4.12;72.78
64086;BME280;50333;47.436;21.390;2023-02-02T05:27:44;100151.25;;;4.02;73.32
64086;BME280;50333;47.436;21.390;2023-02-02T05:30:13;100137.38;;;4.15;72.95
64086;BME280;50333;47.436;21.390;2023-02-02T05:32:41;100141.53;;;4.04;73.07
64086;BME280;50333;47.436;21.390;2023-02-02T05:35:09;100149.94;;;4.00;73.48
64086;BME280;50333;47.436;21.390;2023-02-02T05:37:37;100139.69;;;3.93;73.88
64086;BME280;50333;47.436;21.390;2023-02-02T05:40:06;100140.47;;;3.82;73.77
64086;BME280;50333;47.436;21.390;2023-02-02T05:42:34;100138.81;;;3.87;74.16
64086;BME280;50333;47.436;21.390;2023-02-02T05:45:01;100141.22;;;3.70;74.63
64086;BME280;50333;47.436;21.390;2023-02-02T05:47:29;100137.44;;;3.85;74.56
64086;BME280;50333;47.436;21.390;2023-02-02T05:49:57;100137.91;;;3.93;74.21
64086;BME280;50333;47.436;21.390;2023-02-02T05:52:25;100142.19;;;4.00;74.31
64086;BME280;50333;47.436;21.390;2023-02-02T05:54:53;100142.09;;;4.06;73.97
64086;BME280;50333;47.436;21.390;2023-02-02T05:57:21;100143.94;;;3.75;74.48
64086;BME280;50333;47.436;21.390;2023-02-02T05:59:48;100152.78;;;3.80;74.98
64086;BME280;50333;47.436;21.390;2023-02-02T06:02:16;100150.81;;;4.05;74.14
64086;BME280;50333;47.436;21.390;2023-02-02T06:04:44;100164.62;;;4.23;73.38
64086;BME280;50333;47.436;21.390;2023-02-02T06:07:12;100172.59;;;4.21;73.33
64086;BME280;50333;47.436;21.390;2023-02-02T06:09:39;100181.25;;;4.27;73.23
64086;BME280;50333;47.436;21.390;2023-02-02T06:12:07;100179.69;;;4.38;73.03
64086;BME280;50333;47.436;21.390;2023-02-02T06:14:36;100179.34;;;4.46;72.64
64086;BME280;50333;47.436;21.390;2023-02-02T06:17:03;100179.59;;;4.44;72.76
64086;BME280;50333;47.436;21.390;2023-02-02T06:19:33;100184.19;;;4.30;73.34
64086;BME280;50333;47.436;21.390;2023-02-02T06:22:01;100181.94;;;4.34;72.76
64086;BME280;50333;47.436;21.390;2023-02-02T06:24:29;100182.94;;;4.45;72.94
64086;BME280;50333;47.436;21.390;2023-02-02T06:26:56;100183.41;;;4.53;72.53
64086;BME280;50333;47.436;21.390;2023-02-02T06:29:24;100200.00;;;4.58;72.52
64086;BME280;50333;47.436;21.390;2023-02-02T06:31:52;100198.12;;;4.53;72.33
64086;BME280;50333;47.436;21.390;2023-02-02T06:34:20;100197.75;;;4.73;74.47
64086;BME280;50333;47.436;21.390;2023-02-02T06:36:48;100209.69;;;4.74;72.55
64086;BME280;50333;47.436;21.390;2023-02-02T06:39:16;100200.56;;;4.83;71.70
64086;BME280;50333;47.436;21.390;2023-02-02T06:41:44;100203.97;;;4.72;71.91
64086;BME280;50333;47.436;21.390;2023-02-02T06:44:13;100202.03;;;4.79;71.86
64086;BME280;50333;47.436;21.390;2023-02-02T06:46:41;100206.84;;;4.99;71.45
64086;BME280;50333;47.436;21.390;2023-02-02T06:49:09;100199.78;;;4.95;71.25
64086;BME280;50333;47.436;21.390;2023-02-02T06:51:37;100215.06;;;4.84;71.61
64086;BME280;50333;47.436;21.390;2023-02-02T06:54:05;100209.41;;;4.87;71.59
64086;BME280;50333;47.436;21.390;2023-02-02T06:56:33;100214.59;;;4.87;71.36
64086;BME280;50333;47.436;21.390;2023-02-02T06:59:01;100225.03;;;4.93;71.30
64086;BME280;50333;47.436;21.390;2023-02-02T07:01:29;100213.47;;;4.83;71.58
64086;BME280;50333;47.436;21.390;2023-02-02T07:03:57;100213.91;;;4.80;71.78
64086;BME280;50333;47.436;21.390;2023-02-02T07:06:26;100226.38;;;4.83;71.61
64086;BME280;50333;47.436;21.390;2023-02-02T07:08:55;100226.94;;;4.85;71.62
64086;BME280;50333;47.436;21.390;2023-02-02T07:11:30;100226.84;;;4.80;71.75
64086;BME280;50333;47.436;21.390;2023-02-02T07:14:04;100228.19;;;4.95;71.24
64086;BME280;50333;47.436;21.390;2023-02-02T07:16:32;100232.34;;;4.96;71.30
64086;BME280;50333;47.436;21.390;2023-02-02T07:19:00;100236.16;;;4.81;71.55
64086;BME280;50333;47.436;21.390;2023-02-02T07:21:28;100224.69;;;5.01;71.24
64086;BME280;50333;47.436;21.390;2023-02-02T07:24:03;100236.84;;;5.00;71.35
64086;BME280;50333;47.436;21.390;2023-02-02T07:26:33;100232.44;;;5.01;71.09
64086;BME280;50333;47.436;21.390;2023-02-02T07:29:02;100233.00;;;5.03;71.15
64086;BME280;50333;47.436;21.390;2023-02-02T07:31:30;100244.56;;;5.12;71.04
64086;BME280;50333;47.436;21.390;2023-02-02T07:34:02;100242.00;;;5.12;70.86
64086;BME280;50333;47.436;21.390;2023-02-02T07:36:30;100249.94;;;5.22;70.69
64086;BME280;50333;47.436;21.390;2023-02-02T07:38:58;100259.22;;;5.47;70.24
64086;BME280;50333;47.436;21.390;2023-02-02T07:41:29;100261.06;;;5.75;69.61
64086;BME280;50333;47.436;21.390;2023-02-02T07:43:57;100264.69;;;5.91;68.95
64086;BME280;50333;47.436;21.390;2023-02-02T07:46:25;100264.69;;;5.91;68.49
64086;BME280;50333;47.436;21.390;2023-02-02T07:48:53;100262.41;;;6.07;68.12
64086;BME280;50333;47.436;21.390;2023-02-02T07:51:23;100246.97;;;6.12;67.71
64086;BME280;50333;47.436;21.390;2023-02-02T07:53:53;100259.28;;;6.04;67.67
64086;BME280;50333;47.436;21.390;2023-02-02T07:56:23;100261.78;;;5.99;67.58
64086;BME280;50333;47.436;21.390;2023-02-02T07:58:52;100269.53;;;5.99;67.54
64086;BME280;50333;47.436;21.390;2023-02-02T08:01:21;100282.38;;;5.82;67.91
64086;BME280;50333;47.436;21.390;2023-02-02T08:03:50;100279.25;;;5.80;68.13
64086;BME280;50333;47.436;21.390;2023-02-02T08:06:24;100272.62;;;6.13;67.81
64086;BME280;50333;47.436;21.390;2023-02-02T08:08:53;100272.44;;;6.20;67.60
64086;BME280;50333;47.436;21.390;2023-02-02T08:11:22;100269.34;;;6.35;67.06
64086;BME280;50333;47.436;21.390;2023-02-02T08:13:52;100274.56;;;6.23;66.83
64086;BME280;50333;47.436;21.390;2023-02-02T08:16:21;100265.47;;;6.37;66.94
64086;BME280;50333;47.436;21.390;2023-02-02T08:18:49;100263.44;;;6.73;66.12
64086;BME280;50333;47.436;21.390;2023-02-02T08:21:17;100267.47;;;6.81;65.31
64086;BME280;50333;47.436;21.390;2023-02-02T08:23:46;100274.19;;;6.65;65.06
64086;BME280;50333;47.436;21.390;2023-02-02T08:26:20;100271.13;;;6.85;64.92
64086;BME280;50333;47.436;21.390;2023-02-02T08:29:01;100272.59;;;6.98;64.74
64086;BME280;50333;47.436;21.390;2023-02-02T08:31:32;100267.56;;;7.08;63.98
64086;BME280;50333;47.436;21.390;2023-02-02T08:34:02;100273.78;;;7.29;63.46
64086;BME280;50333;47.436;21.390;2023-02-02T08:36:30;100276.25;;;7.41;63.27
64086;BME280;50333;47.436;21.390;2023-02-02T08:39:00;100288.56;;;7.29;62.72
64086;BME280;50333;47.436;21.390;2023-02-02T08:41:30;100287.56;;;7.30;62.84
64086;BME280;50333;47.436;21.390;2023-02-02T08:43:59;100283.75;;;7.37;62.44
64086;BME280;50333;47.436;21.390;2023-02-02T08:46:30;100286.34;;;7.60;62.65
64086;BME280;50333;47.436;21.390;2023-02-02T08:48:58;100287.72;;;7.67;61.99
64086;BME280;50333;47.436;21.390;2023-02-02T08:51:25;100295.66;;;7.83;61.62
64086;BME280;50333;47.436;21.390;2023-02-02T08:53:53;100292.59;;;7.64;60.91
64086;BME280;50333;47.436;21.390;2023-02-02T08:56:22;100292.88;;;7.89;60.84
64086;BME280;50333;47.436;21.390;2023-02-02T08:58:52;100287.47;;;8.23;60.13
64086;BME280;50333;47.436;21.390;2023-02-02T09:01:23;100304.41;;;8.26;59.83
64086;BME280;50333;47.436;21.390;2023-02-02T09:04:05;100306.75;;;8.27;59.34
64086;BME280;50333;47.436;21.390;2023-02-02T09:06:37;100306.91;;;8.16;59.30
64086;BME280;50333;47.436;21.390;2023-02-02T09:09:08;100298.16;;;8.54;59.03
64086;BME280;50333;47.436;21.390;2023-02-02T09:11:37;100305.50;;;8.62;58.78
64086;BME280;50333;47.436;21.390;2023-02-02T09:14:06;100310.12;;;8.55;59.01
64086;BME280;50333;47.436;21.390;2023-02-02T09:16:34;100316.03;;;8.83;57.86
64086;BME280;50333;47.436;21.390;2023-02-02T09:19:03;100314.25;;;8.83;57.62
64086;BME280;50333;47.436;21.390;2023-02-02T09:21:31;100309.28;;;8.82;56.92
64086;BME280;50333;47.436;21.390;2023-02-02T09:24:11;100316.62;;;8.90;56.82
64086;BME280;50333;47.436;21.390;2023-02-02T09:26:39;100316.06;;;8.88;57.09
64086;BME280;50333;47.436;21.390;2023-02-02T09:29:10;100322.37;;;8.97;56.82
64086;BME280;50333;47.436;21.390;2023-02-02T09:31:38;100316.28;;;9.24;56.73
64086;BME280;50333;47.436;21.390;2023-02-02T09:34:09;100323.94;;;9.41;56.33
64086;BME280;50333;47.436;21.390;2023-02-02T09:36:38;100324.72;;;9.47;56.06
64086;BME280;50333;47.436;21.390;2023-02-02T09:39:07;100330.62;;;9.32;55.57
64086;BME280;50333;47.436;21.390;2023-02-02T09:49:17;100330.31;;;9.76;54.25
64086;BME280;50333;47.436;21.390;2023-02-02T09:51:53;100325.69;;;9.98;53.31
64086;BME280;50333;47.436;21.390;2023-02-02T09:54:32;100325.97;;;10.17;52.89
64086;BME280;50333;47.436;21.390;2023-02-02T09:57:04;100328.69;;;9.65;53.71
64086;BME280;50333;47.436;21.390;2023-02-02T09:59:40;100329.81;;;9.94;53.16
64086;BME280;50333;47.436;21.390;2023-02-02T10:04:46;100329.06;;;9.99;52.96
64086;BME280;50333;47.436;21.390;2023-02-02T10:07:18;100333.81;;;10.28;52.40
64086;BME280;50333;47.436;21.390;2023-02-02T10:10:37;100323.69;;;10.31;51.60
64086;BME280;50333;47.436;21.390;2023-02-02T10:13:00;100323.41;;;10.64;51.85
64086;BME280;50333;47.436;21.390;2023-02-02T10:20:37;100323.41;;;10.79;51.00
64086;BME280;50333;47.436;21.390;2023-02-02T10:23:21;100330.44;;;10.84;50.87
64086;BME280;50333;47.436;21.390;2023-02-02T10:28:41;100327.84;;;10.79;50.27
64086;BME280;50333;47.436;21.390;2023-02-02T10:34:04;100329.69;;;10.52;50.96
64086;BME280;50333;47.436;21.390;2023-02-02T10:36:59;100317.44;;;10.63;51.02
64086;BME280;50333;47.436;21.390;2023-02-02T10:44:51;100321.84;;;10.37;52.76
64086;BME280;50333;47.436;21.390;2023-02-02T10:47:29;100319.25;;;10.32;52.21
64086;BME280;50333;47.436;21.390;2023-02-02T10:50:01;100312.72;;;10.34;52.51
64086;BME280;50333;47.436;21.390;2023-02-02T10:52:34;100311.91;;;10.24;52.93
64086;BME280;50333;47.436;21.390;2023-02-02T10:57:49;100311.69;;;10.41;52.47
64086;BME280;50333;47.436;21.390;2023-02-02T11:03:14;100309.28;;;10.18;51.83
64086;BME280;50333;47.436;21.390;2023-02-02T11:05:43;100314.81;;;10.43;51.76
64086;BME280;50333;47.436;21.390;2023-02-02T11:08:33;100306.94;;;10.12;51.87
64086;BME280;50333;47.436;21.390;2023-02-02T11:11:28;100307.25;;;10.41;51.74
64086;BME280;50333;47.436;21.390;2023-02-02T11:16:36;100289.53;;;10.59;51.27
64086;BME280;50333;47.436;21.390;2023-02-02T11:21:53;100273.63;;;10.40;50.00
64086;BME280;50333;47.436;21.390;2023-02-02T11:24:39;100282.00;;;10.31;49.61
64086;BME280;50333;47.436;21.390;2023-02-02T11:29:52;100276.25;;;10.45;49.82
64086;BME280;50333;47.436;21.390;2023-02-02T11:37:33;100273.63;;;10.29;50.71
64086;BME280;50333;47.436;21.390;2023-02-02T11:43:00;100265.00;;;10.29;48.89
64086;BME280;50333;47.436;21.390;2023-02-02T11:45:32;100273.88;;;10.12;48.92
64086;BME280;50333;47.436;21.390;2023-02-02T11:48:23;100271.00;;;10.14;49.65
64086;BME280;50333;47.436;21.390;2023-02-02T11:50:57;100270.19;;;9.82;49.92
64086;BME280;50333;47.436;21.390;2023-02-02T11:53:29;100275.69;;;9.96;50.25
64086;BME280;50333;47.436;21.390;2023-02-02T11:56:21;100279.59;;;10.09;50.93
64086;BME280;50333;47.436;21.390;2023-02-02T11:58:55;100271.25;;;10.07;50.15
64086;BME280;50333;47.436;21.390;2023-02-02T12:03:59;100268.03;;;9.59;49.84
64086;BME280;50333;47.436;21.390;2023-02-02T12:06:36;100263.09;;;9.68;49.76
64086;BME280;50333;47.436;21.390;2023-02-02T12:09:18;100260.50;;;9.62;49.88
64086;BME280;50333;47.436;21.390;2023-02-02T12:11:53;100261.03;;;9.70;50.43
64086;BME280;50333;47.436;21.390;2023-02-02T12:14:38;100267.22;;;9.48;50.32
64086;BME280;50333;47.436;21.390;2023-02-02T12:17:16;100262.03;;;9.53;50.52
64086;BME280;50333;47.436;21.390;2023-02-02T12:33:33;100249.75;;;9.38;51.68
64086;BME280;50333;47.436;21.390;2023-02-02T12:36:15;100253.94;;;9.44;50.97
64086;BME280;50333;47.436;21.390;2023-02-02T12:47:30;100255.16;;;9.21;52.18
64086;BME280;50333;47.436;21.390;2023-02-02T12:52:57;100253.84;;;9.19;52.31
64086;BME280;50333;47.436;21.390;2023-02-02T12:58:31;100254.88;;;9.23;52.33
64086;BME280;50333;47.436;21.390;2023-02-02T13:04:10;100248.69;;;9.29;51.53
64086;BME280;50333;47.436;21.390;2023-02-02T13:09:30;100246.50;;;9.11;51.95
64086;BME280;50333;47.436;21.390;2023-02-02T13:12:07;100243.97;;;9.21;52.06
64086;BME280;50333;47.436;21.390;2023-02-02T13:19:48;100254.31;;;9.11;51.74
64086;BME280;50333;47.436;21.390;2023-02-02T13:22:48;100255.38;;;9.15;51.61
64086;BME280;50333;47.436;21.390;2023-02-02T13:25:22;100263.94;;;9.10;51.24
64086;BME280;50333;47.436;21.390;2023-02-02T13:27:52;100265.50;;;9.06;50.91
64086;BME280;50333;47.436;21.390;2023-02-02T13:32:57;100268.09;;;9.06;51.53
64086;BME280;50333;47.436;21.390;2023-02-02T13:35:42;100266.56;;;9.15;51.23
64086;BME280;50333;47.436;21.390;2023-02-02T13:38:22;100272.78;;;9.09;51.06
64086;BME280;50333;47.436;21.390;2023-02-02T13:40:56;100265.41;;;8.91;50.86
64086;BME280;50333;47.436;21.390;2023-02-02T13:43:30;100274.16;;;8.79;51.37
64086;BME280;50333;47.436;21.390;2023-02-02T14:00:28;100280.75;;;8.55;52.07
64086;BME280;50333;47.436;21.390;2023-02-02T14:03:03;100282.16;;;8.67;52.25
64086;BME280;50333;47.436;21.390;2023-02-02T14:05:35;100274.34;;;8.62;52.34
64086;BME280;50333;47.436;21.390;2023-02-02T14:11:13;100274.59;;;8.34;54.50
64086;BME280;50333;47.436;21.390;2023-02-02T14:13:43;100276.03;;;8.46;54.38
64086;BME280;50333;47.436;21.390;2023-02-02T14:19:03;100278.28;;;8.38;54.65
64086;BME280;50333;47.436;21.390;2023-02-02T14:24:36;100285.94;;;8.22;55.20
64086;BME280;50333;47.436;21.390;2023-02-02T14:26:51;100285.50;;;8.36;55.45
64086;BME280;50333;47.436;21.390;2023-02-02T14:31:58;100286.28;;;8.31;55.44
64086;BME280;50333;47.436;21.390;2023-02-02T14:34:41;100284.44;;;8.31;55.46
64086;BME280;50333;47.436;21.390;2023-02-02T14:45:30;100297.87;;;8.23;56.23
64086;BME280;50333;47.436;21.390;2023-02-02T14:56:11;100305.50;;;8.08;56.08
64086;BME280;50333;47.436;21.390;2023-02-02T15:04:24;100309.72;;;7.87;57.06
64086;BME280;50333;47.436;21.390;2023-02-02T15:06:52;100309.13;;;7.80;57.54
64086;BME280;50333;47.436;21.390;2023-02-02T15:20:35;100328.56;;;7.77;58.11
64086;BME280;50333;47.436;21.390;2023-02-02T15:25:55;100340.28;;;7.58;58.65
64086;BME280;50333;47.436;21.390;2023-02-02T15:28:45;100340.75;;;7.54;58.81
64086;BME280;50333;47.436;21.390;2023-02-02T15:34:29;100348.06;;;7.58;58.84
64086;BME280;50333;47.436;21.390;2023-02-02T15:37:03;100345.56;;;7.68;58.65
64086;BME280;50333;47.436;21.390;2023-02-02T15:39:37;100351.12;;;7.54;58.44
64086;BME280;50333;47.436;21.390;2023-02-02T15:42:20;100351.84;;;7.50;58.31
64086;BME280;50333;47.436;21.390;2023-02-02T15:47:55;100348.41;;;7.44;58.65
64086;BME280;50333;47.436;21.390;2023-02-02T15:50:24;100347.50;;;7.33;59.04
64086;BME280;50333;47.436;21.390;2023-02-02T15:52:54;100344.25;;;7.43;58.81
64086;BME280;50333;47.436;21.390;2023-02-02T15:55:23;100349.06;;;7.34;58.98
64086;BME280;50333;47.436;21.390;2023-02-02T15:57:52;100349.66;;;7.20;59.35
64086;BME280;50333;47.436;21.390;2023-02-02T16:08:07;100370.28;;;7.31;59.94
64086;BME280;50333;47.436;21.390;2023-02-02T16:10:39;100374.97;;;7.51;59.31
64086;BME280;50333;47.436;21.390;2023-02-02T16:13:20;100375.34;;;7.43;59.53
64086;BME280;50333;47.436;21.390;2023-02-02T16:16:05;100384.72;;;7.44;59.54
64086;BME280;50333;47.436;21.390;2023-02-02T16:18:34;100383.75;;;7.50;58.74
64086;BME280;50333;47.436;21.390;2023-02-02T16:21:06;100396.63;;;7.62;58.05
64086;BME280;50333;47.436;21.390;2023-02-02T16:23:38;100396.16;;;7.65;56.93
64086;BME280;50333;47.436;21.390;2023-02-02T16:26:06;100399.81;;;7.69;56.80
64086;BME280;50333;47.436;21.390;2023-02-02T16:28:34;100404.78;;;7.71;57.38
64086;BME280;50333;47.436;21.390;2023-02-02T16:31:02;100400.19;;;7.78;57.39
64086;BME280;50333;47.436;21.390;2023-02-02T16:33:56;100402.66;;;7.68;57.63